sensor_id;sensor_type;location;lat;lon;timestamp;temperature;humidity
20777;DHT22;10548;47.504;8.248;2022-08-02T00:00:53;19.90;99.90
20777;DHT22;10548;47.504;8.248;2022-08-02T00:03:22;19.80;99.90
20777;DHT22;10548;47.504;8.248;2022-08-02T00:05:50;19.80;99.90
20777;DHT22;10548;47.504;8.248;2022-08-02T00:08:20;19.80;99.90
20777;DHT22;10548;47.504;8.248;2022-08-02T00:10:47;19.70;99.90
20777;DHT22;10548;47.504;8.248;2022-08-02T00:13:14;19.70;99.90
20777;DHT22;10548;47.504;8.248;2022-08-02T00:15:41;19.60;99.90
20777;DHT22;10548;47.504;8.248;2022-08-02T00:18:08;19.60;99.90
20777;DHT22;10548;47.504;8.248;2022-08-02T00:20:35;19.60;99.90
20777;DHT22;10548;47.504;8.248;2022-08-02T00:23:02;19.50;99.90
20777;DHT22;10548;47.504;8.248;2022-08-02T00:25:30;19.50;99.90
20777;DHT22;10548;47.504;8.248;2022-08-02T00:27:57;19.50;99.90
20777;DHT22;10548;47.504;8.248;2022-08-02T00:30:24;19.40;99.90
20777;DHT22;10548;47.504;8.248;2022-08-02T00:32:51;19.30;99.90
20777;DHT22;10548;47.504;8.248;2022-08-02T00:35:18;19.20;99.90
20777;DHT22;10548;47.504;8.248;2022-08-02T00:37:45;19.10;99.90
20777;DHT22;10548;47.504;8.248;2022-08-02T00:40:12;19.00;99.90
20777;DHT22;10548;47.504;8.248;2022-08-02T00:42:40;19.00;99.90
20777;DHT22;10548;47.504;8.248;2022-08-02T00:45:07;18.90;99.90
20777;DHT22;10548;47.504;8.248;2022-08-02T00:47:35;18.90;99.90
20777;DHT22;10548;47.504;8.248;2022-08-02T00:50:03;18.80;99.90
20777;DHT22;10548;47.504;8.248;2022-08-02T00:52:30;18.70;99.90
20777;DHT22;10548;47.504;8.248;2022-08-02T00:54:57;18.80;99.90
20777;DHT22;10548;47.504;8.248;2022-08-02T00:57:24;18.80;99.90
20777;DHT22;10548;47.504;8.248;2022-08-02T00:59:51;18.80;99.90
20777;DHT22;10548;47.504;8.248;2022-08-02T01:02:18;18.80;99.90
20777;DHT22;10548;47.504;8.248;2022-08-02T01:04:45;18.70;99.90
20777;DHT22;10548;47.504;8.248;2022-08-02T01:07:12;18.70;99.90
20777;DHT22;10548;47.504;8.248;2022-08-02T01:09:44;18.60;99.90
20777;DHT22;10548;47.504;8.248;2022-08-02T01:12:12;18.60;99.90
20777;DHT22;10548;47.504;8.248;2022-08-02T01:14:41;18.60;99.90
20777;DHT22;10548;47.504;8.248;2022-08-02T01:20:24;18.40;99.90
20777;DHT22;10548;47.504;8.248;2022-08-02T01:29:31;18.40;99.90
20777;DHT22;10548;47.504;8.248;2022-08-02T01:32:08;18.50;99.90
20777;DHT22;10548;47.504;8.248;2022-08-02T01:34:48;18.50;99.90
20777;DHT22;10548;47.504;8.248;2022-08-02T01:37:38;18.40;99.90
20777;DHT22;10548;47.504;8.248;2022-08-02T01:40:10;18.30;99.90
20777;DHT22;10548;47.504;8.248;2022-08-02T01:42:44;18.30;99.90
20777;DHT22;10548;47.504;8.248;2022-08-02T01:45:12;18.20;99.90
20777;DHT22;10548;47.504;8.248;2022-08-02T01:47:41;18.20;99.90
20777;DHT22;10548;47.504;8.248;2022-08-02T01:50:13;18.20;99.90
20777;DHT22;10548;47.504;8.248;2022-08-02T01:52:49;18.10;99.90
20777;DHT22;10548;47.504;8.248;2022-08-02T01:55:24;18.00;99.90
20777;DHT22;10548;47.504;8.248;2022-08-02T01:58:14;18.00;99.90
20777;DHT22;10548;47.504;8.248;2022-08-02T02:00:42;18.00;99.90
20777;DHT22;10548;47.504;8.248;2022-08-02T02:03:18;17.90;99.90
20777;DHT22;10548;47.504;8.248;2022-08-02T02:05:49;17.80;99.90
20777;DHT22;10548;47.504;8.248;2022-08-02T02:08:22;17.80;99.90
20777;DHT22;10548;47.504;8.248;2022-08-02T02:10:55;17.80;99.90
20777;DHT22;10548;47.504;8.248;2022-08-02T02:13:23;17.80;99.90
20777;DHT22;10548;47.504;8.248;2022-08-02T02:16:02;17.80;99.90
20777;DHT22;10548;47.504;8.248;2022-08-02T02:18:33;17.80;99.90
20777;DHT22;10548;47.504;8.248;2022-08-02T02:21:05;17.70;99.90
20777;DHT22;10548;47.504;8.248;2022-08-02T02:23:32;17.70;99.90
20777;DHT22;10548;47.504;8.248;2022-08-02T02:26:03;17.60;99.90
20777;DHT22;10548;47.504;8.248;2022-08-02T02:28:33;17.60;99.90
20777;DHT22;10548;47.504;8.248;2022-08-02T02:31:15;17.60;99.90
20777;DHT22;10548;47.504;8.248;2022-08-02T02:34:26;17.50;99.90
20777;DHT22;10548;47.504;8.248;2022-08-02T02:36:51;17.50;99.90
20777;DHT22;10548;47.504;8.248;2022-08-02T02:39:23;17.50;99.90
20777;DHT22;10548;47.504;8.248;2022-08-02T02:41:52;17.40;99.90
20777;DHT22;10548;47.504;8.248;2022-08-02T02:44:21;17.50;99.90
20777;DHT22;10548;47.504;8.248;2022-08-02T02:46:51;17.50;99.90
20777;DHT22;10548;47.504;8.248;2022-08-02T02:49:20;17.70;99.90
20777;DHT22;10548;47.504;8.248;2022-08-02T02:51:49;17.60;99.90
20777;DHT22;10548;47.504;8.248;2022-08-02T02:54:17;17.50;99.90
20777;DHT22;10548;47.504;8.248;2022-08-02T02:57:00;17.50;99.90
20777;DHT22;10548;47.504;8.248;2022-08-02T02:59:28;17.50;99.90
20777;DHT22;10548;47.504;8.248;2022-08-02T03:01:56;17.40;99.90
20777;DHT22;10548;47.504;8.248;2022-08-02T03:04:26;17.30;99.90
20777;DHT22;10548;47.504;8.248;2022-08-02T03:07:14;17.30;99.90
20777;DHT22;10548;47.504;8.248;2022-08-02T03:09:41;17.40;99.90
20777;DHT22;10548;47.504;8.248;2022-08-02T03:12:08;17.40;99.90
20777;DHT22;10548;47.504;8.248;2022-08-02T03:14:41;17.20;99.90
20777;DHT22;10548;47.504;8.248;2022-08-02T03:17:09;17.20;99.90
20777;DHT22;10548;47.504;8.248;2022-08-02T03:19:36;17.10;99.90
20777;DHT22;10548;47.504;8.248;2022-08-02T03:22:03;17.10;99.90
20777;DHT22;10548;47.504;8.248;2022-08-02T03:24:30;17.20;99.90
20777;DHT22;10548;47.504;8.248;2022-08-02T03:26:58;17.20;99.90
20777;DHT22;10548;47.504;8.248;2022-08-02T03:29:25;17.10;99.90
20777;DHT22;10548;47.504;8.248;2022-08-02T03:31:57;17.10;99.90
20777;DHT22;10548;47.504;8.248;2022-08-02T03:34:24;17.10;99.90
20777;DHT22;10548;47.504;8.248;2022-08-02T03:36:54;17.10;99.90
20777;DHT22;10548;47.504;8.248;2022-08-02T03:39:22;17.10;99.90
20777;DHT22;10548;47.504;8.248;2022-08-02T03:41:49;17.10;99.90
20777;DHT22;10548;47.504;8.248;2022-08-02T03:44:18;17.10;99.90
20777;DHT22;10548;47.504;8.248;2022-08-02T03:46:45;17.10;99.90
20777;DHT22;10548;47.504;8.248;2022-08-02T03:49:15;17.10;99.90
20777;DHT22;10548;47.504;8.248;2022-08-02T03:51:43;17.10;99.90
20777;DHT22;10548;47.504;8.248;2022-08-02T03:54:11;17.00;99.90
20777;DHT22;10548;47.504;8.248;2022-08-02T03:56:39;17.00;99.90
20777;DHT22;10548;47.504;8.248;2022-08-02T03:59:12;17.00;99.90
20777;DHT22;10548;47.504;8.248;2022-08-02T04:01:40;16.90;99.90
20777;DHT22;10548;47.504;8.248;2022-08-02T04:04:07;16.90;99.90
20777;DHT22;10548;47.504;8.248;2022-08-02T04:06:34;16.90;99.90
20777;DHT22;10548;47.504;8.248;2022-08-02T04:09:08;16.90;99.90
20777;DHT22;10548;47.504;8.248;2022-08-02T04:11:35;16.90;99.90
20777;DHT22;10548;47.504;8.248;2022-08-02T04:14:06;16.90;99.90
20777;DHT22;10548;47.504;8.248;2022-08-02T04:16:49;16.90;99.90
20777;DHT22;10548;47.504;8.248;2022-08-02T04:19:41;17.00;99.90
20777;DHT22;10548;47.504;8.248;2022-08-02T04:22:14;17.00;99.90
20777;DHT22;10548;47.504;8.248;2022-08-02T04:24:46;17.10;99.90
20777;DHT22;10548;47.504;8.248;2022-08-02T04:27:16;17.20;99.90
20777;DHT22;10548;47.504;8.248;2022-08-02T04:30:05;17.10;99.90
20777;DHT22;10548;47.504;8.248;2022-08-02T04:32:34;17.30;99.90
20777;DHT22;10548;47.504;8.248;2022-08-02T04:35:01;17.30;99.90
20777;DHT22;10548;47.504;8.248;2022-08-02T04:37:46;17.30;99.90
20777;DHT22;10548;47.504;8.248;2022-08-02T04:40:33;17.30;99.90
20777;DHT22;10548;47.504;8.248;2022-08-02T04:43:00;17.30;99.90
20777;DHT22;10548;47.504;8.248;2022-08-02T04:45:29;17.40;99.90
20777;DHT22;10548;47.504;8.248;2022-08-02T04:47:56;17.50;99.90
20777;DHT22;10548;47.504;8.248;2022-08-02T04:50:32;17.50;99.90
20777;DHT22;10548;47.504;8.248;2022-08-02T04:52:59;17.60;99.90
20777;DHT22;10548;47.504;8.248;2022-08-02T04:55:27;17.70;99.90
20777;DHT22;10548;47.504;8.248;2022-08-02T04:57:56;17.70;99.90
20777;DHT22;10548;47.504;8.248;2022-08-02T05:00:25;17.80;99.90
20777;DHT22;10548;47.504;8.248;2022-08-02T05:02:56;17.80;99.90
20777;DHT22;10548;47.504;8.248;2022-08-02T05:05:23;17.90;99.90
20777;DHT22;10548;47.504;8.248;2022-08-02T05:07:50;18.00;99.90
20777;DHT22;10548;47.504;8.248;2022-08-02T05:10:18;18.10;99.90
20777;DHT22;10548;47.504;8.248;2022-08-02T05:12:45;18.10;99.90
20777;DHT22;10548;47.504;8.248;2022-08-02T05:15:13;18.10;99.90
20777;DHT22;10548;47.504;8.248;2022-08-02T05:17:43;18.20;99.90
20777;DHT22;10548;47.504;8.248;2022-08-02T05:20:15;18.30;99.90
20777;DHT22;10548;47.504;8.248;2022-08-02T05:22:43;18.40;99.90
20777;DHT22;10548;47.504;8.248;2022-08-02T05:25:10;18.50;99.90
20777;DHT22;10548;47.504;8.248;2022-08-02T05:27:37;18.60;99.90
20777;DHT22;10548;47.504;8.248;2022-08-02T05:30:05;18.60;99.90
20777;DHT22;10548;47.504;8.248;2022-08-02T05:32:32;18.70;99.90
20777;DHT22;10548;47.504;8.248;2022-08-02T05:35:01;18.90;99.90
20777;DHT22;10548;47.504;8.248;2022-08-02T05:37:28;19.10;99.90
20777;DHT22;10548;47.504;8.248;2022-08-02T05:39:58;19.20;99.90
20777;DHT22;10548;47.504;8.248;2022-08-02T05:42:30;19.20;99.90
20777;DHT22;10548;47.504;8.248;2022-08-02T05:44:58;19.20;99.90
20777;DHT22;10548;47.504;8.248;2022-08-02T05:47:25;19.30;99.90
20777;DHT22;10548;47.504;8.248;2022-08-02T05:49:52;19.40;99.90
20777;DHT22;10548;47.504;8.248;2022-08-02T05:52:20;19.40;99.90
20777;DHT22;10548;47.504;8.248;2022-08-02T05:55:04;19.30;99.90
20777;DHT22;10548;47.504;8.248;2022-08-02T05:58:05;19.30;99.90
20777;DHT22;10548;47.504;8.248;2022-08-02T06:00:33;19.30;99.90
20777;DHT22;10548;47.504;8.248;2022-08-02T06:03:09;19.50;99.90
20777;DHT22;10548;47.504;8.248;2022-08-02T06:06:12;19.60;99.90
20777;DHT22;10548;47.504;8.248;2022-08-02T06:08:49;19.80;99.90
20777;DHT22;10548;47.504;8.248;2022-08-02T06:11:20;19.90;99.90
20777;DHT22;10548;47.504;8.248;2022-08-02T06:13:48;20.00;99.90
20777;DHT22;10548;47.504;8.248;2022-08-02T06:16:15;19.90;99.90
20777;DHT22;10548;47.504;8.248;2022-08-02T06:18:58;19.80;99.90
20777;DHT22;10548;47.504;8.248;2022-08-02T06:21:26;19.90;99.90
20777;DHT22;10548;47.504;8.248;2022-08-02T06:24:17;19.90;99.90
20777;DHT22;10548;47.504;8.248;2022-08-02T06:26:45;20.00;99.90
20777;DHT22;10548;47.504;8.248;2022-08-02T06:29:19;20.10;99.90
20777;DHT22;10548;47.504;8.248;2022-08-02T06:31:51;20.20;99.90
20777;DHT22;10548;47.504;8.248;2022-08-02T06:34:19;20.30;99.90
20777;DHT22;10548;47.504;8.248;2022-08-02T06:36:56;20.40;99.90
20777;DHT22;10548;47.504;8.248;2022-08-02T06:42:36;20.30;99.90
20777;DHT22;10548;47.504;8.248;2022-08-02T06:45:04;20.10;99.90
20777;DHT22;10548;47.504;8.248;2022-08-02T06:47:32;20.20;99.90
20777;DHT22;10548;47.504;8.248;2022-08-02T06:49:59;20.30;99.90
20777;DHT22;10548;47.504;8.248;2022-08-02T06:52:28;20.40;99.90
20777;DHT22;10548;47.504;8.248;2022-08-02T06:55:01;20.60;99.90
20777;DHT22;10548;47.504;8.248;2022-08-02T06:57:31;20.90;99.90
20777;DHT22;10548;47.504;8.248;2022-08-02T06:59:58;20.90;99.90
20777;DHT22;10548;47.504;8.248;2022-08-02T07:02:29;21.20;99.90
20777;DHT22;10548;47.504;8.248;2022-08-02T07:04:56;21.50;99.90
20777;DHT22;10548;47.504;8.248;2022-08-02T07:07:24;21.70;99.90
20777;DHT22;10548;47.504;8.248;2022-08-02T07:09:51;21.70;99.90
20777;DHT22;10548;47.504;8.248;2022-08-02T07:12:28;22.20;99.90
20777;DHT22;10548;47.504;8.248;2022-08-02T07:14:56;22.50;99.60
20777;DHT22;10548;47.504;8.248;2022-08-02T07:17:24;22.40;99.90
20777;DHT22;10548;47.504;8.248;2022-08-02T07:19:51;22.40;99.30
20777;DHT22;10548;47.504;8.248;2022-08-02T07:22:18;22.20;99.90
20777;DHT22;10548;47.504;8.248;2022-08-02T07:27:16;22.40;98.00
20777;DHT22;10548;47.504;8.248;2022-08-02T07:29:44;22.40;98.80
20777;DHT22;10548;47.504;8.248;2022-08-02T07:32:17;22.20;99.70
20777;DHT22;10548;47.504;8.248;2022-08-02T07:34:45;22.20;99.90
20777;DHT22;10548;47.504;8.248;2022-08-02T07:37:23;22.20;98.60
20777;DHT22;10548;47.504;8.248;2022-08-02T07:40:12;22.70;97.10
20777;DHT22;10548;47.504;8.248;2022-08-02T07:42:50;22.90;94.70
20777;DHT22;10548;47.504;8.248;2022-08-02T07:45:28;22.80;94.10
20777;DHT22;10548;47.504;8.248;2022-08-02T07:47:56;23.20;94.20
20777;DHT22;10548;47.504;8.248;2022-08-02T07:50:23;23.20;92.90
20777;DHT22;10548;47.504;8.248;2022-08-02T07:52:50;23.20;91.00
20777;DHT22;10548;47.504;8.248;2022-08-02T07:55:24;23.50;90.60
20777;DHT22;10548;47.504;8.248;2022-08-02T07:58:08;23.70;84.00
20777;DHT22;10548;47.504;8.248;2022-08-02T08:00:40;23.70;85.90
20777;DHT22;10548;47.504;8.248;2022-08-02T08:03:07;23.80;86.00
20777;DHT22;10548;47.504;8.248;2022-08-02T08:05:35;23.60;88.40
20777;DHT22;10548;47.504;8.248;2022-08-02T08:08:03;23.60;87.50
20777;DHT22;10548;47.504;8.248;2022-08-02T08:10:31;24.20;82.10
20777;DHT22;10548;47.504;8.248;2022-08-02T08:12:59;24.40;80.50
20777;DHT22;10548;47.504;8.248;2022-08-02T08:15:26;23.80;83.80
20777;DHT22;10548;47.504;8.248;2022-08-02T08:17:53;24.10;83.40
20777;DHT22;10548;47.504;8.248;2022-08-02T08:20:20;24.50;80.80
20777;DHT22;10548;47.504;8.248;2022-08-02T08:22:48;24.50;74.90
20777;DHT22;10548;47.504;8.248;2022-08-02T08:25:15;24.50;72.50
20777;DHT22;10548;47.504;8.248;2022-08-02T08:27:49;24.20;74.60
20777;DHT22;10548;47.504;8.248;2022-08-02T08:30:19;24.20;75.10
20777;DHT22;10548;47.504;8.248;2022-08-02T08:32:47;24.40;72.60
20777;DHT22;10548;47.504;8.248;2022-08-02T08:35:15;24.40;72.80
20777;DHT22;10548;47.504;8.248;2022-08-02T08:37:42;24.60;71.10
20777;DHT22;10548;47.504;8.248;2022-08-02T08:40:10;25.10;67.20
20777;DHT22;10548;47.504;8.248;2022-08-02T08:42:38;25.30;66.40
20777;DHT22;10548;47.504;8.248;2022-08-02T08:45:06;25.40;62.50
20777;DHT22;10548;47.504;8.248;2022-08-02T08:47:39;25.40;60.40
20777;DHT22;10548;47.504;8.248;2022-08-02T08:50:11;25.30;61.30
20777;DHT22;10548;47.504;8.248;2022-08-02T08:53:07;25.00;62.50
20777;DHT22;10548;47.504;8.248;2022-08-02T08:55:38;24.90;63.30
20777;DHT22;10548;47.504;8.248;2022-08-02T08:58:05;25.40;60.80
20777;DHT22;10548;47.504;8.248;2022-08-02T09:00:35;25.20;60.30
20777;DHT22;10548;47.504;8.248;2022-08-02T09:03:04;25.40;60.60
20777;DHT22;10548;47.504;8.248;2022-08-02T09:05:34;25.40;59.80
20777;DHT22;10548;47.504;8.248;2022-08-02T09:08:02;25.60;58.80
20777;DHT22;10548;47.504;8.248;2022-08-02T09:10:43;25.60;58.00
20777;DHT22;10548;47.504;8.248;2022-08-02T09:13:14;26.10;56.00
20777;DHT22;10548;47.504;8.248;2022-08-02T09:16:03;25.80;56.20
20777;DHT22;10548;47.504;8.248;2022-08-02T09:18:43;25.60;56.40
20777;DHT22;10548;47.504;8.248;2022-08-02T09:21:13;26.70;55.90
20777;DHT22;10548;47.504;8.248;2022-08-02T09:23:46;26.80;54.00
20777;DHT22;10548;47.504;8.248;2022-08-02T09:26:21;27.00;52.00
20777;DHT22;10548;47.504;8.248;2022-08-02T09:28:50;26.40;52.20
20777;DHT22;10548;47.504;8.248;2022-08-02T09:31:22;26.60;51.70
20777;DHT22;10548;47.504;8.248;2022-08-02T09:33:55;27.00;52.00
20777;DHT22;10548;47.504;8.248;2022-08-02T09:36:23;28.10;47.70
20777;DHT22;10548;47.504;8.248;2022-08-02T09:39:02;27.80;47.10
20777;DHT22;10548;47.504;8.248;2022-08-02T09:41:33;27.30;48.10
20777;DHT22;10548;47.504;8.248;2022-08-02T09:44:02;27.60;48.80
20777;DHT22;10548;47.504;8.248;2022-08-02T09:46:38;28.20;45.90
20777;DHT22;10548;47.504;8.248;2022-08-02T09:49:10;28.30;45.00
20777;DHT22;10548;47.504;8.248;2022-08-02T09:51:49;28.40;43.20
20777;DHT22;10548;47.504;8.248;2022-08-02T09:54:25;27.60;45.20
20777;DHT22;10548;47.504;8.248;2022-08-02T09:56:58;27.70;46.20
20777;DHT22;10548;47.504;8.248;2022-08-02T09:59:27;27.50;46.40
20777;DHT22;10548;47.504;8.248;2022-08-02T10:01:56;27.60;49.20
20777;DHT22;10548;47.504;8.248;2022-08-02T10:04:30;27.40;45.50
20777;DHT22;10548;47.504;8.248;2022-08-02T10:07:01;27.50;46.20
20777;DHT22;10548;47.504;8.248;2022-08-02T10:09:31;28.30;44.20
20777;DHT22;10548;47.504;8.248;2022-08-02T10:11:59;28.20;45.20
20777;DHT22;10548;47.504;8.248;2022-08-02T10:14:27;28.10;45.40
20777;DHT22;10548;47.504;8.248;2022-08-02T10:16:56;28.40;42.00
20777;DHT22;10548;47.504;8.248;2022-08-02T10:19:23;29.00;41.20
20777;DHT22;10548;47.504;8.248;2022-08-02T10:22:13;29.10;40.80
20777;DHT22;10548;47.504;8.248;2022-08-02T10:24:41;29.10;40.00
20777;DHT22;10548;47.504;8.248;2022-08-02T10:27:19;28.50;41.90
20777;DHT22;10548;47.504;8.248;2022-08-02T10:29:48;29.00;40.90
20777;DHT22;10548;47.504;8.248;2022-08-02T10:32:39;29.90;38.40
20777;DHT22;10548;47.504;8.248;2022-08-02T10:35:12;30.20;36.50
20777;DHT22;10548;47.504;8.248;2022-08-02T10:37:56;30.30;35.00
20777;DHT22;10548;47.504;8.248;2022-08-02T10:40:44;29.60;35.40
20777;DHT22;10548;47.504;8.248;2022-08-02T10:43:12;30.00;34.80
20777;DHT22;10548;47.504;8.248;2022-08-02T10:45:39;30.90;33.20
20777;DHT22;10548;47.504;8.248;2022-08-02T10:48:11;31.40;32.00
20777;DHT22;10548;47.504;8.248;2022-08-02T10:51:06;31.20;31.50
20777;DHT22;10548;47.504;8.248;2022-08-02T10:53:34;30.40;33.10
20777;DHT22;10548;47.504;8.248;2022-08-02T10:56:04;30.20;34.30
20777;DHT22;10548;47.504;8.248;2022-08-02T10:58:35;30.30;34.80
20777;DHT22;10548;47.504;8.248;2022-08-02T11:01:04;29.90;33.50
20777;DHT22;10548;47.504;8.248;2022-08-02T11:03:37;29.30;33.90
20777;DHT22;10548;47.504;8.248;2022-08-02T11:06:11;29.40;34.50
20777;DHT22;10548;47.504;8.248;2022-08-02T11:09:29;29.50;33.20
20777;DHT22;10548;47.504;8.248;2022-08-02T11:14:59;29.50;33.70
20777;DHT22;10548;47.504;8.248;2022-08-02T11:17:27;30.10;34.50
20777;DHT22;10548;47.504;8.248;2022-08-02T11:20:14;31.40;30.20
20777;DHT22;10548;47.504;8.248;2022-08-02T11:22:43;30.10;30.70
20777;DHT22;10548;47.504;8.248;2022-08-02T11:25:42;30.10;30.30
20777;DHT22;10548;47.504;8.248;2022-08-02T11:28:30;30.10;31.20
20777;DHT22;10548;47.504;8.248;2022-08-02T11:31:00;31.50;30.00
20777;DHT22;10548;47.504;8.248;2022-08-02T11:33:32;32.40;29.10
20777;DHT22;10548;47.504;8.248;2022-08-02T11:36:02;32.30;28.30
20777;DHT22;10548;47.504;8.248;2022-08-02T11:38:29;31.50;29.60
20777;DHT22;10548;47.504;8.248;2022-08-02T11:40:56;32.80;28.10
20777;DHT22;10548;47.504;8.248;2022-08-02T11:43:25;33.50;25.90
20777;DHT22;10548;47.504;8.248;2022-08-02T11:45:53;33.20;26.30
20777;DHT22;10548;47.504;8.248;2022-08-02T11:48:33;33.20;26.90
20777;DHT22;10548;47.504;8.248;2022-08-02T11:51:11;33.10;27.10
20777;DHT22;10548;47.504;8.248;2022-08-02T11:53:51;34.80;25.70
20777;DHT22;10548;47.504;8.248;2022-08-02T11:56:29;33.60;25.80
20777;DHT22;10548;47.504;8.248;2022-08-02T11:59:06;32.00;27.30
20777;DHT22;10548;47.504;8.248;2022-08-02T12:01:34;31.80;28.00
20777;DHT22;10548;47.504;8.248;2022-08-02T12:04:15;33.70;26.60
20777;DHT22;10548;47.504;8.248;2022-08-02T12:06:42;34.60;25.10
20777;DHT22;10548;47.504;8.248;2022-08-02T12:09:11;35.10;23.20
20777;DHT22;10548;47.504;8.248;2022-08-02T12:11:48;34.50;23.00
20777;DHT22;10548;47.504;8.248;2022-08-02T12:14:16;33.20;25.30
20777;DHT22;10548;47.504;8.248;2022-08-02T12:16:43;33.40;25.30
20777;DHT22;10548;47.504;8.248;2022-08-02T12:19:29;33.40;25.20
20777;DHT22;10548;47.504;8.248;2022-08-02T12:22:26;33.00;25.90
20777;DHT22;10548;47.504;8.248;2022-08-02T12:24:55;32.20;27.90
20777;DHT22;10548;47.504;8.248;2022-08-02T12:27:34;32.10;26.10
20777;DHT22;10548;47.504;8.248;2022-08-02T12:30:10;32.50;26.10
20777;DHT22;10548;47.504;8.248;2022-08-02T12:32:38;31.50;27.00
20777;DHT22;10548;47.504;8.248;2022-08-02T12:35:17;31.40;27.50
20777;DHT22;10548;47.504;8.248;2022-08-02T12:37:52;33.00;26.20
20777;DHT22;10548;47.504;8.248;2022-08-02T12:40:25;33.00;25.10
20777;DHT22;10548;47.504;8.248;2022-08-02T12:43:00;33.00;24.10
20777;DHT22;10548;47.504;8.248;2022-08-02T12:45:29;32.30;25.40
20777;DHT22;10548;47.504;8.248;2022-08-02T12:48:07;33.20;24.90
20777;DHT22;10548;47.504;8.248;2022-08-02T12:50:35;33.60;24.60
20777;DHT22;10548;47.504;8.248;2022-08-02T12:53:14;34.50;23.00
20777;DHT22;10548;47.504;8.248;2022-08-02T12:55:54;35.30;20.80
20777;DHT22;10548;47.504;8.248;2022-08-02T12:58:30;35.40;21.20
20777;DHT22;10548;47.504;8.248;2022-08-02T13:00:59;34.50;22.40
20777;DHT22;10548;47.504;8.248;2022-08-02T13:03:27;34.20;22.10
20777;DHT22;10548;47.504;8.248;2022-08-02T13:06:15;35.40;21.10
20777;DHT22;10548;47.504;8.248;2022-08-02T13:09:11;35.00;21.20
20777;DHT22;10548;47.504;8.248;2022-08-02T13:11:39;34.20;20.40
20777;DHT22;10548;47.504;8.248;2022-08-02T13:14:08;32.30;23.90
20777;DHT22;10548;47.504;8.248;2022-08-02T13:16:35;32.30;24.50
20777;DHT22;10548;47.504;8.248;2022-08-02T13:19:02;32.70;22.90
20777;DHT22;10548;47.504;8.248;2022-08-02T13:21:29;33.80;21.50
20777;DHT22;10548;47.504;8.248;2022-08-02T13:24:17;33.60;21.30
20777;DHT22;10548;47.504;8.248;2022-08-02T13:27:04;32.10;23.40
20777;DHT22;10548;47.504;8.248;2022-08-02T13:29:38;32.00;23.50
20777;DHT22;10548;47.504;8.248;2022-08-02T13:32:05;33.50;22.00
20777;DHT22;10548;47.504;8.248;2022-08-02T13:34:32;35.40;20.50
20777;DHT22;10548;47.504;8.248;2022-08-02T13:36:59;34.10;22.50
20777;DHT22;10548;47.504;8.248;2022-08-02T13:39:27;34.60;21.00
20777;DHT22;10548;47.504;8.248;2022-08-02T13:41:54;32.40;22.50
20777;DHT22;10548;47.504;8.248;2022-08-02T13:44:21;32.50;22.70
20777;DHT22;10548;47.504;8.248;2022-08-02T13:46:48;32.60;22.10
20777;DHT22;10548;47.504;8.248;2022-08-02T13:49:16;33.50;21.20
20777;DHT22;10548;47.504;8.248;2022-08-02T13:51:46;33.40;20.30
20777;DHT22;10548;47.504;8.248;2022-08-02T13:54:14;32.70;20.70
20777;DHT22;10548;47.504;8.248;2022-08-02T13:56:41;33.10;20.10
20777;DHT22;10548;47.504;8.248;2022-08-02T13:59:09;34.90;19.40
20777;DHT22;10548;47.504;8.248;2022-08-02T14:01:56;34.60;18.20
20777;DHT22;10548;47.504;8.248;2022-08-02T14:09:20;33.60;20.10
20777;DHT22;10548;47.504;8.248;2022-08-02T14:11:47;33.90;19.70
20777;DHT22;10548;47.504;8.248;2022-08-02T14:14:15;33.80;18.60
20777;DHT22;10548;47.504;8.248;2022-08-02T14:16:43;34.10;21.00
20777;DHT22;10548;47.504;8.248;2022-08-02T14:19:11;33.40;21.60
20777;DHT22;10548;47.504;8.248;2022-08-02T14:21:43;33.60;20.70
20777;DHT22;10548;47.504;8.248;2022-08-02T14:24:13;35.50;22.90
20777;DHT22;10548;47.504;8.248;2022-08-02T14:26:41;35.50;22.20
20777;DHT22;10548;47.504;8.248;2022-08-02T14:29:08;35.30;22.90
20777;DHT22;10548;47.504;8.248;2022-08-02T14:31:35;36.50;23.10
20777;DHT22;10548;47.504;8.248;2022-08-02T14:34:09;36.40;22.10
20777;DHT22;10548;47.504;8.248;2022-08-02T14:36:37;36.70;22.60
20777;DHT22;10548;47.504;8.248;2022-08-02T14:39:05;36.60;22.10
20777;DHT22;10548;47.504;8.248;2022-08-02T14:41:32;36.60;20.70
20777;DHT22;10548;47.504;8.248;2022-08-02T14:44:22;36.00;21.40
20777;DHT22;10548;47.504;8.248;2022-08-02T14:46:50;37.10;21.50
20777;DHT22;10548;47.504;8.248;2022-08-02T14:49:19;36.20;21.20
20777;DHT22;10548;47.504;8.248;2022-08-02T14:51:55;33.80;21.70
20777;DHT22;10548;47.504;8.248;2022-08-02T14:54:24;34.00;22.30
20777;DHT22;10548;47.504;8.248;2022-08-02T14:57:01;34.90;21.10
20777;DHT22;10548;47.504;8.248;2022-08-02T14:59:29;34.90;21.40
20777;DHT22;10548;47.504;8.248;2022-08-02T15:01:57;36.40;21.20
20777;DHT22;10548;47.504;8.248;2022-08-02T15:04:25;35.80;21.10
20777;DHT22;10548;47.504;8.248;2022-08-02T15:06:53;33.30;22.60
20777;DHT22;10548;47.504;8.248;2022-08-02T15:09:21;32.90;22.70
20777;DHT22;10548;47.504;8.248;2022-08-02T15:11:48;34.20;21.80
20777;DHT22;10548;47.504;8.248;2022-08-02T15:14:16;34.70;21.00
20777;DHT22;10548;47.504;8.248;2022-08-02T15:16:51;35.30;20.90
20777;DHT22;10548;47.504;8.248;2022-08-02T15:19:27;35.90;20.90
20777;DHT22;10548;47.504;8.248;2022-08-02T15:22:14;36.10;19.80
20777;DHT22;10548;47.504;8.248;2022-08-02T15:24:46;37.40;20.10
20777;DHT22;10548;47.504;8.248;2022-08-02T15:27:14;36.60;19.50
20777;DHT22;10548;47.504;8.248;2022-08-02T15:29:42;34.20;20.60
20777;DHT22;10548;47.504;8.248;2022-08-02T15:32:11;34.10;22.00
20777;DHT22;10548;47.504;8.248;2022-08-02T15:34:39;34.00;22.40
20777;DHT22;10548;47.504;8.248;2022-08-02T15:37:06;34.40;22.30
20777;DHT22;10548;47.504;8.248;2022-08-02T15:39:33;33.10;22.00
20777;DHT22;10548;47.504;8.248;2022-08-02T15:42:00;32.90;23.20
20777;DHT22;10548;47.504;8.248;2022-08-02T15:44:28;33.70;22.50
20777;DHT22;10548;47.504;8.248;2022-08-02T15:46:55;35.50;20.70
20777;DHT22;10548;47.504;8.248;2022-08-02T15:49:23;35.00;20.50
20777;DHT22;10548;47.504;8.248;2022-08-02T15:51:51;34.90;21.20
20777;DHT22;10548;47.504;8.248;2022-08-02T15:54:19;36.10;20.80
20777;DHT22;10548;47.504;8.248;2022-08-02T15:56:46;36.10;19.60
20777;DHT22;10548;47.504;8.248;2022-08-02T15:59:13;34.10;20.90
20777;DHT22;10548;47.504;8.248;2022-08-02T16:01:40;34.00;21.90
20777;DHT22;10548;47.504;8.248;2022-08-02T16:04:13;34.90;21.20
20777;DHT22;10548;47.504;8.248;2022-08-02T16:06:41;35.50;20.90
20777;DHT22;10548;47.504;8.248;2022-08-02T16:09:08;35.90;20.20
20777;DHT22;10548;47.504;8.248;2022-08-02T16:11:35;34.30;20.70
20777;DHT22;10548;47.504;8.248;2022-08-02T16:14:03;34.00;21.50
20777;DHT22;10548;47.504;8.248;2022-08-02T16:16:32;34.20;20.50
20777;DHT22;10548;47.504;8.248;2022-08-02T16:19:00;35.00;21.30
20777;DHT22;10548;47.504;8.248;2022-08-02T16:21:47;36.50;20.50